Terminal Aerodrome Forecast
Issued by NWS

Home | Current Version | Previous Version | Text Only | Print | Product List | Glossary On
Versions: 1 2 3 4 5 6 7 8 9 10 11 12 13 14 15
000
FTUS42 KTBW 010522
TAFLAL
TAF
KLAL 010522Z 0106/0206 VRB03KT P6SM SCT025
     FM010800 00000KT 6SM BR FEW005
     FM011300 VRB03KT P6SM SCT015
     FM011600 05005KT P6SM SCT035
     FM012000 06005KT P6SM VCTS SCT040CB BKN250
     FM020000 04004KT P6SM SCT040 SCT250
      AMD NOT SKED TIL 011100=

USA.gov is the U.S. government's official web portal to all federal, state and local government web resources and services.